sensor_id;sensor_type;location;lat;lon;timestamp;P1;durP1;ratioP1;P2;durP2;ratioP2
11777;SDS011;5946;51.770;8.548;2023-08-06T00:02:15;11.10;;;9.60;;
11777;SDS011;5946;51.770;8.548;2023-08-06T00:04:40;12.00;;;9.27;;
11777;SDS011;5946;51.770;8.548;2023-08-06T00:07:06;16.33;;;9.17;;
11777;SDS011;5946;51.770;8.548;2023-08-06T00:09:32;12.30;;;9.33;;
11777;SDS011;5946;51.770;8.548;2023-08-06T00:11:58;11.20;;;9.87;;
11777;SDS011;5946;51.770;8.548;2023-08-06T00:14:24;12.57;;;9.77;;
11777;SDS011;5946;51.770;8.548;2023-08-06T00:16:50;10.43;;;9.10;;
11777;SDS011;5946;51.770;8.548;2023-08-06T00:19:16;10.80;;;9.57;;
11777;SDS011;5946;51.770;8.548;2023-08-06T00:21:42;12.03;;;9.83;;
11777;SDS011;5946;51.770;8.548;2023-08-06T00:24:08;9.93;;;8.93;;
11777;SDS011;5946;51.770;8.548;2023-08-06T00:26:34;10.47;;;9.43;;
11777;SDS011;5946;51.770;8.548;2023-08-06T00:29:00;10.03;;;9.00;;
11777;SDS011;5946;51.770;8.548;2023-08-06T00:31:26;11.83;;;9.07;;
11777;SDS011;5946;51.770;8.548;2023-08-06T00:33:52;12.23;;;8.73;;
11777;SDS011;5946;51.770;8.548;2023-08-06T00:36:18;11.13;;;9.47;;
11777;SDS011;5946;51.770;8.548;2023-08-06T00:38:44;11.07;;;9.27;;
11777;SDS011;5946;51.770;8.548;2023-08-06T00:41:10;12.50;;;9.20;;
11777;SDS011;5946;51.770;8.548;2023-08-06T00:43:36;11.80;;;9.70;;
11777;SDS011;5946;51.770;8.548;2023-08-06T00:46:02;10.63;;;9.63;;
11777;SDS011;5946;51.770;8.548;2023-08-06T00:48:28;13.57;;;9.50;;
11777;SDS011;5946;51.770;8.548;2023-08-06T00:50:54;13.23;;;9.50;;
11777;SDS011;5946;51.770;8.548;2023-08-06T00:53:20;12.83;;;9.97;;
11777;SDS011;5946;51.770;8.548;2023-08-06T00:55:46;10.20;;;9.30;;
11777;SDS011;5946;51.770;8.548;2023-08-06T00:58:13;10.63;;;9.60;;
11777;SDS011;5946;51.770;8.548;2023-08-06T01:00:40;10.37;;;9.37;;
11777;SDS011;5946;51.770;8.548;2023-08-06T01:03:06;10.43;;;9.30;;
11777;SDS011;5946;51.770;8.548;2023-08-06T01:05:32;11.80;;;9.53;;
11777;SDS011;5946;51.770;8.548;2023-08-06T01:10:49;11.83;;;9.73;;
11777;SDS011;5946;51.770;8.548;2023-08-06T01:15:50;12.43;;;9.87;;
11777;SDS011;5946;51.770;8.548;2023-08-06T01:18:18;11.87;;;9.97;;
11777;SDS011;5946;51.770;8.548;2023-08-06T01:20:44;13.37;;;9.73;;
11777;SDS011;5946;51.770;8.548;2023-08-06T01:23:10;10.70;;;9.70;;
11777;SDS011;5946;51.770;8.548;2023-08-06T01:26:19;11.47;;;9.77;;
11777;SDS011;5946;51.770;8.548;2023-08-06T01:30:58;15.10;;;9.77;;
11777;SDS011;5946;51.770;8.548;2023-08-06T01:33:25;11.40;;;9.80;;
11777;SDS011;5946;51.770;8.548;2023-08-06T01:35:53;11.10;;;9.87;;
11777;SDS011;5946;51.770;8.548;2023-08-06T01:38:19;15.63;;;10.60;;
11777;SDS011;5946;51.770;8.548;2023-08-06T01:40:45;13.97;;;9.90;;
11777;SDS011;5946;51.770;8.548;2023-08-06T01:43:11;9.80;;;8.87;;
11777;SDS011;5946;51.770;8.548;2023-08-06T01:45:37;10.63;;;9.53;;
11777;SDS011;5946;51.770;8.548;2023-08-06T01:48:03;12.13;;;9.60;;
11777;SDS011;5946;51.770;8.548;2023-08-06T01:50:29;11.43;;;9.77;;
11777;SDS011;5946;51.770;8.548;2023-08-06T01:52:55;10.03;;;9.07;;
11777;SDS011;5946;51.770;8.548;2023-08-06T01:55:21;11.37;;;9.10;;
11777;SDS011;5946;51.770;8.548;2023-08-06T01:57:47;10.77;;;9.47;;
11777;SDS011;5946;51.770;8.548;2023-08-06T02:00:13;10.73;;;9.63;;
11777;SDS011;5946;51.770;8.548;2023-08-06T02:02:39;10.80;;;9.70;;
11777;SDS011;5946;51.770;8.548;2023-08-06T02:05:06;12.83;;;9.70;;
11777;SDS011;5946;51.770;8.548;2023-08-06T02:07:32;12.07;;;10.03;;
11777;SDS011;5946;51.770;8.548;2023-08-06T02:09:58;11.07;;;9.53;;
11777;SDS011;5946;51.770;8.548;2023-08-06T02:12:24;12.30;;;9.50;;
11777;SDS011;5946;51.770;8.548;2023-08-06T02:14:49;11.07;;;8.87;;
11777;SDS011;5946;51.770;8.548;2023-08-06T02:17:15;16.27;;;9.43;;
11777;SDS011;5946;51.770;8.548;2023-08-06T02:19:41;10.67;;;8.97;;
11777;SDS011;5946;51.770;8.548;2023-08-06T02:22:08;11.30;;;10.03;;
11777;SDS011;5946;51.770;8.548;2023-08-06T02:24:34;10.50;;;9.50;;
11777;SDS011;5946;51.770;8.548;2023-08-06T02:27:00;11.57;;;10.33;;
11777;SDS011;5946;51.770;8.548;2023-08-06T02:29:26;10.73;;;9.73;;
11777;SDS011;5946;51.770;8.548;2023-08-06T02:31:52;11.67;;;9.57;;
11777;SDS011;5946;51.770;8.548;2023-08-06T02:34:18;10.93;;;9.80;;
11777;SDS011;5946;51.770;8.548;2023-08-06T02:36:44;11.40;;;10.13;;
11777;SDS011;5946;51.770;8.548;2023-08-06T02:39:10;10.57;;;9.57;;
11777;SDS011;5946;51.770;8.548;2023-08-06T02:41:36;12.33;;;9.20;;
11777;SDS011;5946;51.770;8.548;2023-08-06T02:44:02;12.73;;;10.40;;
11777;SDS011;5946;51.770;8.548;2023-08-06T02:46:28;11.77;;;9.93;;
11777;SDS011;5946;51.770;8.548;2023-08-06T02:48:54;11.53;;;10.33;;
11777;SDS011;5946;51.770;8.548;2023-08-06T02:51:20;12.27;;;10.53;;
11777;SDS011;5946;51.770;8.548;2023-08-06T02:53:47;12.33;;;10.80;;
11777;SDS011;5946;51.770;8.548;2023-08-06T02:56:13;11.23;;;10.17;;
11777;SDS011;5946;51.770;8.548;2023-08-06T02:58:39;12.00;;;10.80;;
11777;SDS011;5946;51.770;8.548;2023-08-06T03:01:05;11.87;;;10.60;;
11777;SDS011;5946;51.770;8.548;2023-08-06T03:03:32;16.23;;;12.00;;
11777;SDS011;5946;51.770;8.548;2023-08-06T03:05:58;13.40;;;11.70;;
11777;SDS011;5946;51.770;8.548;2023-08-06T03:08:24;12.40;;;10.97;;
11777;SDS011;5946;51.770;8.548;2023-08-06T03:10:51;13.87;;;11.83;;
11777;SDS011;5946;51.770;8.548;2023-08-06T03:13:17;18.23;;;13.47;;
11777;SDS011;5946;51.770;8.548;2023-08-06T03:15:44;16.50;;;12.57;;
11777;SDS011;5946;51.770;8.548;2023-08-06T03:18:17;15.60;;;12.10;;
11777;SDS011;5946;51.770;8.548;2023-08-06T03:20:44;13.70;;;12.30;;
11777;SDS011;5946;51.770;8.548;2023-08-06T03:23:10;17.30;;;13.67;;
11777;SDS011;5946;51.770;8.548;2023-08-06T03:25:36;15.03;;;11.77;;
11777;SDS011;5946;51.770;8.548;2023-08-06T03:28:02;13.20;;;11.80;;
11777;SDS011;5946;51.770;8.548;2023-08-06T03:30:28;15.13;;;12.33;;
11777;SDS011;5946;51.770;8.548;2023-08-06T03:32:54;14.13;;;12.23;;
11777;SDS011;5946;51.770;8.548;2023-08-06T03:35:20;18.70;;;12.73;;
11777;SDS011;5946;51.770;8.548;2023-08-06T03:37:46;14.40;;;12.43;;
11777;SDS011;5946;51.770;8.548;2023-08-06T03:40:13;17.17;;;13.97;;
11777;SDS011;5946;51.770;8.548;2023-08-06T03:42:39;19.00;;;14.83;;
11777;SDS011;5946;51.770;8.548;2023-08-06T03:45:05;17.77;;;13.23;;
11777;SDS011;5946;51.770;8.548;2023-08-06T03:47:31;14.70;;;13.00;;
11777;SDS011;5946;51.770;8.548;2023-08-06T03:49:57;15.30;;;13.80;;
11777;SDS011;5946;51.770;8.548;2023-08-06T03:52:23;18.17;;;13.50;;
11777;SDS011;5946;51.770;8.548;2023-08-06T03:54:49;16.80;;;14.37;;
11777;SDS011;5946;51.770;8.548;2023-08-06T03:57:15;17.70;;;13.33;;
11777;SDS011;5946;51.770;8.548;2023-08-06T03:59:41;13.60;;;12.30;;
11777;SDS011;5946;51.770;8.548;2023-08-06T04:02:07;16.90;;;13.43;;
11777;SDS011;5946;51.770;8.548;2023-08-06T04:04:33;14.87;;;13.27;;
11777;SDS011;5946;51.770;8.548;2023-08-06T04:06:59;15.77;;;13.40;;
11777;SDS011;5946;51.770;8.548;2023-08-06T04:09:27;14.43;;;12.93;;
11777;SDS011;5946;51.770;8.548;2023-08-06T04:11:53;17.67;;;13.27;;
11777;SDS011;5946;51.770;8.548;2023-08-06T04:14:19;17.57;;;13.43;;
11777;SDS011;5946;51.770;8.548;2023-08-06T04:16:45;16.60;;;14.07;;
11777;SDS011;5946;51.770;8.548;2023-08-06T04:19:11;19.50;;;14.70;;
11777;SDS011;5946;51.770;8.548;2023-08-06T04:21:37;13.53;;;12.13;;
11777;SDS011;5946;51.770;8.548;2023-08-06T04:24:03;14.23;;;12.73;;
11777;SDS011;5946;51.770;8.548;2023-08-06T04:26:29;16.57;;;12.83;;
11777;SDS011;5946;51.770;8.548;2023-08-06T04:28:55;17.00;;;12.97;;
11777;SDS011;5946;51.770;8.548;2023-08-06T04:31:21;15.07;;;13.57;;
11777;SDS011;5946;51.770;8.548;2023-08-06T04:33:48;14.87;;;12.23;;
11777;SDS011;5946;51.770;8.548;2023-08-06T04:36:14;15.87;;;13.30;;
11777;SDS011;5946;51.770;8.548;2023-08-06T04:38:40;16.90;;;13.80;;
11777;SDS011;5946;51.770;8.548;2023-08-06T04:41:10;16.97;;;13.93;;
11777;SDS011;5946;51.770;8.548;2023-08-06T04:43:36;14.40;;;12.87;;
11777;SDS011;5946;51.770;8.548;2023-08-06T04:46:02;16.03;;;12.97;;
11777;SDS011;5946;51.770;8.548;2023-08-06T04:48:28;15.10;;;12.40;;
11777;SDS011;5946;51.770;8.548;2023-08-06T04:50:54;14.43;;;12.93;;
11777;SDS011;5946;51.770;8.548;2023-08-06T04:53:20;15.70;;;13.70;;
11777;SDS011;5946;51.770;8.548;2023-08-06T04:55:46;17.97;;;12.67;;
11777;SDS011;5946;51.770;8.548;2023-08-06T04:58:13;14.83;;;13.27;;
11777;SDS011;5946;51.770;8.548;2023-08-06T05:00:39;16.23;;;13.37;;
11777;SDS011;5946;51.770;8.548;2023-08-06T05:03:05;14.70;;;13.20;;
11777;SDS011;5946;51.770;8.548;2023-08-06T05:05:31;14.70;;;13.20;;
11777;SDS011;5946;51.770;8.548;2023-08-06T05:07:57;15.23;;;13.63;;
11777;SDS011;5946;51.770;8.548;2023-08-06T05:10:26;20.13;;;14.63;;
11777;SDS011;5946;51.770;8.548;2023-08-06T05:12:53;17.10;;;13.83;;
11777;SDS011;5946;51.770;8.548;2023-08-06T05:15:19;18.90;;;14.53;;
11777;SDS011;5946;51.770;8.548;2023-08-06T05:17:45;15.93;;;13.70;;
11777;SDS011;5946;51.770;8.548;2023-08-06T05:20:11;16.73;;;14.13;;
11777;SDS011;5946;51.770;8.548;2023-08-06T05:22:37;19.87;;;14.43;;
11777;SDS011;5946;51.770;8.548;2023-08-06T05:25:03;19.97;;;14.93;;
11777;SDS011;5946;51.770;8.548;2023-08-06T05:27:29;16.13;;;14.43;;
11777;SDS011;5946;51.770;8.548;2023-08-06T05:29:55;17.97;;;14.93;;
11777;SDS011;5946;51.770;8.548;2023-08-06T05:32:22;17.50;;;15.13;;
11777;SDS011;5946;51.770;8.548;2023-08-06T05:34:47;16.03;;;14.30;;
11777;SDS011;5946;51.770;8.548;2023-08-06T05:37:13;15.27;;;13.77;;
11777;SDS011;5946;51.770;8.548;2023-08-06T05:39:39;19.07;;;13.80;;
11777;SDS011;5946;51.770;8.548;2023-08-06T05:42:06;14.43;;;12.97;;
11777;SDS011;5946;51.770;8.548;2023-08-06T05:44:32;14.80;;;13.03;;
11777;SDS011;5946;51.770;8.548;2023-08-06T05:46:58;14.70;;;12.80;;
11777;SDS011;5946;51.770;8.548;2023-08-06T05:49:24;13.53;;;12.13;;
11777;SDS011;5946;51.770;8.548;2023-08-06T05:51:50;16.77;;;12.67;;
11777;SDS011;5946;51.770;8.548;2023-08-06T05:54:18;14.13;;;12.63;;
11777;SDS011;5946;51.770;8.548;2023-08-06T05:56:44;14.77;;;12.90;;
11777;SDS011;5946;51.770;8.548;2023-08-06T05:59:10;15.47;;;13.47;;
11777;SDS011;5946;51.770;8.548;2023-08-06T06:01:36;14.10;;;12.70;;
11777;SDS011;5946;51.770;8.548;2023-08-06T06:04:02;14.33;;;12.73;;
11777;SDS011;5946;51.770;8.548;2023-08-06T06:06:28;15.00;;;13.10;;
11777;SDS011;5946;51.770;8.548;2023-08-06T06:08:54;14.20;;;12.27;;
11777;SDS011;5946;51.770;8.548;2023-08-06T06:11:20;15.57;;;12.70;;
11777;SDS011;5946;51.770;8.548;2023-08-06T06:13:47;13.50;;;12.10;;
11777;SDS011;5946;51.770;8.548;2023-08-06T06:16:13;15.17;;;12.20;;
11777;SDS011;5946;51.770;8.548;2023-08-06T06:18:39;13.10;;;11.60;;
11777;SDS011;5946;51.770;8.548;2023-08-06T06:21:05;12.63;;;10.50;;
11777;SDS011;5946;51.770;8.548;2023-08-06T06:23:31;12.10;;;10.80;;
11777;SDS011;5946;51.770;8.548;2023-08-06T06:25:57;15.03;;;11.13;;
11777;SDS011;5946;51.770;8.548;2023-08-06T06:28:23;12.97;;;11.77;;
11777;SDS011;5946;51.770;8.548;2023-08-06T06:30:49;12.40;;;11.10;;
11777;SDS011;5946;51.770;8.548;2023-08-06T06:33:15;13.33;;;10.33;;
11777;SDS011;5946;51.770;8.548;2023-08-06T06:35:41;10.90;;;9.00;;
11777;SDS011;5946;51.770;8.548;2023-08-06T06:38:07;10.43;;;9.27;;
11777;SDS011;5946;51.770;8.548;2023-08-06T06:40:33;9.47;;;8.13;;
11777;SDS011;5946;51.770;8.548;2023-08-06T06:42:59;10.70;;;8.60;;
11777;SDS011;5946;51.770;8.548;2023-08-06T06:45:25;8.20;;;7.50;;
11777;SDS011;5946;51.770;8.548;2023-08-06T06:47:51;7.97;;;7.27;;
11777;SDS011;5946;51.770;8.548;2023-08-06T06:50:17;9.43;;;6.83;;
11777;SDS011;5946;51.770;8.548;2023-08-06T06:52:43;7.10;;;6.40;;
11777;SDS011;5946;51.770;8.548;2023-08-06T06:55:09;8.40;;;6.60;;
11777;SDS011;5946;51.770;8.548;2023-08-06T06:57:34;7.33;;;6.53;;
11777;SDS011;5946;51.770;8.548;2023-08-06T07:00:00;8.40;;;7.17;;
11777;SDS011;5946;51.770;8.548;2023-08-06T07:02:26;7.27;;;6.57;;
11777;SDS011;5946;51.770;8.548;2023-08-06T07:04:52;6.33;;;5.73;;
11777;SDS011;5946;51.770;8.548;2023-08-06T07:07:18;6.43;;;5.83;;
11777;SDS011;5946;51.770;8.548;2023-08-06T07:09:44;6.13;;;5.53;;
11777;SDS011;5946;51.770;8.548;2023-08-06T07:12:10;5.20;;;4.70;;
11777;SDS011;5946;51.770;8.548;2023-08-06T07:14:36;8.40;;;4.83;;
11777;SDS011;5946;51.770;8.548;2023-08-06T07:17:03;6.97;;;5.03;;
11777;SDS011;5946;51.770;8.548;2023-08-06T07:19:29;5.23;;;4.73;;
11777;SDS011;5946;51.770;8.548;2023-08-06T07:21:56;6.10;;;4.47;;
11777;SDS011;5946;51.770;8.548;2023-08-06T07:24:22;10.07;;;4.80;;
11777;SDS011;5946;51.770;8.548;2023-08-06T07:26:48;5.57;;;4.70;;
11777;SDS011;5946;51.770;8.548;2023-08-06T07:29:14;5.20;;;4.17;;
11777;SDS011;5946;51.770;8.548;2023-08-06T07:31:44;5.20;;;4.70;;
11777;SDS011;5946;51.770;8.548;2023-08-06T07:34:10;8.07;;;4.40;;
11777;SDS011;5946;51.770;8.548;2023-08-06T07:36:37;5.00;;;4.53;;
11777;SDS011;5946;51.770;8.548;2023-08-06T07:39:03;5.33;;;4.43;;
11777;SDS011;5946;51.770;8.548;2023-08-06T07:41:31;5.67;;;4.60;;
11777;SDS011;5946;51.770;8.548;2023-08-06T07:43:57;4.77;;;4.10;;
11777;SDS011;5946;51.770;8.548;2023-08-06T07:46:23;5.17;;;4.10;;
11777;SDS011;5946;51.770;8.548;2023-08-06T07:48:49;5.40;;;4.13;;
11777;SDS011;5946;51.770;8.548;2023-08-06T07:51:15;4.30;;;3.90;;
11777;SDS011;5946;51.770;8.548;2023-08-06T07:53:41;5.83;;;3.90;;
11777;SDS011;5946;51.770;8.548;2023-08-06T07:56:07;6.10;;;4.17;;
11777;SDS011;5946;51.770;8.548;2023-08-06T07:58:33;6.17;;;4.20;;
11777;SDS011;5946;51.770;8.548;2023-08-06T08:00:59;6.47;;;4.00;;
11777;SDS011;5946;51.770;8.548;2023-08-06T08:03:25;5.23;;;4.07;;
11777;SDS011;5946;51.770;8.548;2023-08-06T08:05:53;5.20;;;4.00;;
11777;SDS011;5946;51.770;8.548;2023-08-06T08:08:22;4.30;;;3.40;;
11777;SDS011;5946;51.770;8.548;2023-08-06T08:10:48;3.60;;;3.30;;
11777;SDS011;5946;51.770;8.548;2023-08-06T08:13:14;5.13;;;3.23;;
11777;SDS011;5946;51.770;8.548;2023-08-06T08:15:40;8.30;;;4.03;;
11777;SDS011;5946;51.770;8.548;2023-08-06T08:18:06;5.13;;;3.60;;
11777;SDS011;5946;51.770;8.548;2023-08-06T08:20:32;4.13;;;2.83;;
11777;SDS011;5946;51.770;8.548;2023-08-06T08:23:00;2.87;;;2.67;;
11777;SDS011;5946;51.770;8.548;2023-08-06T08:25:26;4.33;;;3.00;;
11777;SDS011;5946;51.770;8.548;2023-08-06T08:27:53;5.17;;;2.67;;
11777;SDS011;5946;51.770;8.548;2023-08-06T08:30:19;5.33;;;2.80;;
11777;SDS011;5946;51.770;8.548;2023-08-06T08:32:45;3.15;;;2.90;;
11777;SDS011;5946;51.770;8.548;2023-08-06T08:35:11;3.10;;;2.80;;
11777;SDS011;5946;51.770;8.548;2023-08-06T08:37:38;4.28;;;2.67;;
11777;SDS011;5946;51.770;8.548;2023-08-06T08:40:05;3.78;;;2.80;;
11777;SDS011;5946;51.770;8.548;2023-08-06T08:42:31;2.30;;;2.10;;
11777;SDS011;5946;51.770;8.548;2023-08-06T08:44:57;3.40;;;1.98;;
11777;SDS011;5946;51.770;8.548;2023-08-06T08:47:24;2.25;;;1.98;;
11777;SDS011;5946;51.770;8.548;2023-08-06T08:49:52;3.35;;;2.22;;
11777;SDS011;5946;51.770;8.548;2023-08-06T08:52:20;3.67;;;2.00;;
11777;SDS011;5946;51.770;8.548;2023-08-06T08:54:47;3.78;;;2.20;;
11777;SDS011;5946;51.770;8.548;2023-08-06T08:57:18;3.17;;;2.20;;
11777;SDS011;5946;51.770;8.548;2023-08-06T08:59:44;1.98;;;1.85;;
11777;SDS011;5946;51.770;8.548;2023-08-06T09:02:13;2.28;;;2.08;;
11777;SDS011;5946;51.770;8.548;2023-08-06T09:04:40;2.08;;;1.88;;
11777;SDS011;5946;51.770;8.548;2023-08-06T09:07:07;3.13;;;1.98;;
11777;SDS011;5946;51.770;8.548;2023-08-06T09:09:35;2.50;;;2.30;;
11777;SDS011;5946;51.770;8.548;2023-08-06T09:12:12;3.80;;;2.28;;
11777;SDS011;5946;51.770;8.548;2023-08-06T09:14:38;5.30;;;2.22;;
11777;SDS011;5946;51.770;8.548;2023-08-06T09:17:04;2.50;;;2.30;;
11777;SDS011;5946;51.770;8.548;2023-08-06T09:19:31;2.50;;;2.30;;
11777;SDS011;5946;51.770;8.548;2023-08-06T09:21:57;2.20;;;2.00;;
11777;SDS011;5946;51.770;8.548;2023-08-06T09:24:23;2.30;;;2.10;;
11777;SDS011;5946;51.770;8.548;2023-08-06T09:26:49;4.88;;;2.13;;
11777;SDS011;5946;51.770;8.548;2023-08-06T09:29:15;4.60;;;2.25;;
11777;SDS011;5946;51.770;8.548;2023-08-06T09:31:41;4.30;;;2.20;;
11777;SDS011;5946;51.770;8.548;2023-08-06T09:34:11;3.95;;;2.17;;
11777;SDS011;5946;51.770;8.548;2023-08-06T09:36:46;2.30;;;2.08;;
11777;SDS011;5946;51.770;8.548;2023-08-06T09:39:12;3.90;;;2.00;;
11777;SDS011;5946;51.770;8.548;2023-08-06T09:41:39;3.88;;;1.90;;
11777;SDS011;5946;51.770;8.548;2023-08-06T09:44:06;3.15;;;2.20;;
11777;SDS011;5946;51.770;8.548;2023-08-06T09:46:38;2.70;;;2.03;;
11777;SDS011;5946;51.770;8.548;2023-08-06T09:49:04;4.07;;;1.77;;
11777;SDS011;5946;51.770;8.548;2023-08-06T09:51:33;1.90;;;1.70;;
11777;SDS011;5946;51.770;8.548;2023-08-06T09:53:59;1.90;;;1.65;;
11777;SDS011;5946;51.770;8.548;2023-08-06T09:56:26;2.13;;;1.70;;
11777;SDS011;5946;51.770;8.548;2023-08-06T09:58:52;2.15;;;1.70;;
11777;SDS011;5946;51.770;8.548;2023-08-06T10:01:18;3.25;;;1.58;;
11777;SDS011;5946;51.770;8.548;2023-08-06T10:03:44;2.15;;;1.50;;
11777;SDS011;5946;51.770;8.548;2023-08-06T10:06:11;1.60;;;1.42;;
11777;SDS011;5946;51.770;8.548;2023-08-06T10:08:37;2.95;;;1.50;;
11777;SDS011;5946;51.770;8.548;2023-08-06T10:11:05;1.88;;;1.30;;
11777;SDS011;5946;51.770;8.548;2023-08-06T10:13:32;2.33;;;1.45;;
11777;SDS011;5946;51.770;8.548;2023-08-06T10:15:59;1.40;;;1.20;;
11777;SDS011;5946;51.770;8.548;2023-08-06T10:18:25;1.73;;;1.20;;
11777;SDS011;5946;51.770;8.548;2023-08-06T10:20:51;1.30;;;1.20;;
11777;SDS011;5946;51.770;8.548;2023-08-06T10:23:18;2.67;;;1.60;;
11777;SDS011;5946;51.770;8.548;2023-08-06T10:25:46;2.60;;;1.48;;
11777;SDS011;5946;51.770;8.548;2023-08-06T10:28:22;2.40;;;1.55;;
11777;SDS011;5946;51.770;8.548;2023-08-06T10:30:48;2.20;;;1.38;;
11777;SDS011;5946;51.770;8.548;2023-08-06T10:33:15;1.40;;;1.30;;
11777;SDS011;5946;51.770;8.548;2023-08-06T10:35:45;3.20;;;1.55;;
11777;SDS011;5946;51.770;8.548;2023-08-06T10:38:25;3.20;;;1.70;;
11777;SDS011;5946;51.770;8.548;2023-08-06T10:45:52;2.33;;;1.80;;
11777;SDS011;5946;51.770;8.548;2023-08-06T10:50:59;2.90;;;1.80;;
11777;SDS011;5946;51.770;8.548;2023-08-06T10:53:25;2.42;;;1.90;;
11777;SDS011;5946;51.770;8.548;2023-08-06T10:55:51;4.38;;;2.00;;
11777;SDS011;5946;51.770;8.548;2023-08-06T10:58:17;2.72;;;2.33;;
11777;SDS011;5946;51.770;8.548;2023-08-06T11:00:43;3.13;;;2.38;;
11777;SDS011;5946;51.770;8.548;2023-08-06T11:03:10;8.48;;;2.20;;
11777;SDS011;5946;51.770;8.548;2023-08-06T11:05:35;4.63;;;2.10;;
11777;SDS011;5946;51.770;8.548;2023-08-06T11:08:02;3.53;;;2.25;;
11777;SDS011;5946;51.770;8.548;2023-08-06T11:10:28;3.08;;;1.98;;
11777;SDS011;5946;51.770;8.548;2023-08-06T11:12:54;1.80;;;1.70;;
11777;SDS011;5946;51.770;8.548;2023-08-06T11:15:20;2.28;;;2.08;;
11777;SDS011;5946;51.770;8.548;2023-08-06T11:17:46;3.15;;;2.22;;
11777;SDS011;5946;51.770;8.548;2023-08-06T11:20:13;4.35;;;1.98;;
11777;SDS011;5946;51.770;8.548;2023-08-06T11:22:39;2.63;;;2.15;;
11777;SDS011;5946;51.770;8.548;2023-08-06T11:25:06;2.95;;;2.10;;
11777;SDS011;5946;51.770;8.548;2023-08-06T11:27:32;2.22;;;2.00;;
11777;SDS011;5946;51.770;8.548;2023-08-06T11:29:58;2.20;;;2.00;;
11777;SDS011;5946;51.770;8.548;2023-08-06T11:32:24;2.95;;;1.90;;
11777;SDS011;5946;51.770;8.548;2023-08-06T11:34:52;1.83;;;1.70;;
11777;SDS011;5946;51.770;8.548;2023-08-06T11:37:20;3.33;;;2.35;;
11777;SDS011;5946;51.770;8.548;2023-08-06T11:39:48;2.50;;;2.03;;
11777;SDS011;5946;51.770;8.548;2023-08-06T11:42:14;4.82;;;1.95;;
11777;SDS011;5946;51.770;8.548;2023-08-06T11:44:40;2.67;;;2.35;;
11777;SDS011;5946;51.770;8.548;2023-08-06T11:47:14;6.28;;;2.83;;
11777;SDS011;5946;51.770;8.548;2023-08-06T11:49:47;6.40;;;2.93;;
11777;SDS011;5946;51.770;8.548;2023-08-06T11:54:39;6.87;;;3.30;;
11777;SDS011;5946;51.770;8.548;2023-08-06T11:57:05;4.67;;;3.30;;
11777;SDS011;5946;51.770;8.548;2023-08-06T11:59:32;4.67;;;3.00;;
11777;SDS011;5946;51.770;8.548;2023-08-06T12:01:59;5.80;;;3.60;;
11777;SDS011;5946;51.770;8.548;2023-08-06T12:04:26;5.00;;;3.40;;
11777;SDS011;5946;51.770;8.548;2023-08-06T12:06:52;4.47;;;3.30;;
11777;SDS011;5946;51.770;8.548;2023-08-06T12:09:18;6.10;;;3.20;;
11777;SDS011;5946;51.770;8.548;2023-08-06T12:11:45;4.17;;;3.10;;
11777;SDS011;5946;51.770;8.548;2023-08-06T12:14:11;4.60;;;3.20;;
11777;SDS011;5946;51.770;8.548;2023-08-06T12:16:37;8.17;;;3.27;;
11777;SDS011;5946;51.770;8.548;2023-08-06T12:19:03;3.40;;;3.10;;
11777;SDS011;5946;51.770;8.548;2023-08-06T12:21:29;3.50;;;3.20;;
11777;SDS011;5946;51.770;8.548;2023-08-06T12:23:55;3.10;;;2.80;;
11777;SDS011;5946;51.770;8.548;2023-08-06T12:26:21;5.55;;;3.20;;
11777;SDS011;5946;51.770;8.548;2023-08-06T12:28:47;5.70;;;3.30;;
11777;SDS011;5946;51.770;8.548;2023-08-06T12:31:14;3.35;;;3.00;;
11777;SDS011;5946;51.770;8.548;2023-08-06T12:33:40;3.90;;;3.45;;
11777;SDS011;5946;51.770;8.548;2023-08-06T12:36:06;6.68;;;3.10;;
11777;SDS011;5946;51.770;8.548;2023-08-06T12:38:32;4.45;;;3.38;;
11777;SDS011;5946;51.770;8.548;2023-08-06T12:40:58;3.45;;;3.15;;
11777;SDS011;5946;51.770;8.548;2023-08-06T12:43:24;3.58;;;3.20;;
11777;SDS011;5946;51.770;8.548;2023-08-06T12:45:50;6.10;;;4.50;;
11777;SDS011;5946;51.770;8.548;2023-08-06T12:48:16;4.10;;;2.90;;
11777;SDS011;5946;51.770;8.548;2023-08-06T12:50:44;4.10;;;3.10;;
11777;SDS011;5946;51.770;8.548;2023-08-06T12:53:10;2.80;;;2.60;;
11777;SDS011;5946;51.770;8.548;2023-08-06T12:55:36;2.95;;;2.63;;
11777;SDS011;5946;51.770;8.548;2023-08-06T12:58:02;3.17;;;2.30;;
11777;SDS011;5946;51.770;8.548;2023-08-06T13:00:28;2.53;;;2.30;;
11777;SDS011;5946;51.770;8.548;2023-08-06T13:02:54;2.70;;;2.50;;
11777;SDS011;5946;51.770;8.548;2023-08-06T13:05:20;3.33;;;2.28;;
11777;SDS011;5946;51.770;8.548;2023-08-06T13:07:46;2.95;;;2.17;;
11777;SDS011;5946;51.770;8.548;2023-08-06T13:10:12;3.45;;;2.50;;
11777;SDS011;5946;51.770;8.548;2023-08-06T13:12:38;2.50;;;2.30;;
11777;SDS011;5946;51.770;8.548;2023-08-06T13:15:04;2.55;;;2.05;;
11777;SDS011;5946;51.770;8.548;2023-08-06T13:17:30;2.00;;;1.80;;
11777;SDS011;5946;51.770;8.548;2023-08-06T13:19:56;2.67;;;2.00;;
11777;SDS011;5946;51.770;8.548;2023-08-06T13:22:22;1.55;;;1.45;;
11777;SDS011;5946;51.770;8.548;2023-08-06T13:24:48;1.50;;;1.40;;
11777;SDS011;5946;51.770;8.548;2023-08-06T13:27:14;1.77;;;1.40;;
11777;SDS011;5946;51.770;8.548;2023-08-06T13:29:40;7.45;;;1.52;;
11777;SDS011;5946;51.770;8.548;2023-08-06T13:32:06;1.98;;;1.88;;
11777;SDS011;5946;51.770;8.548;2023-08-06T13:34:32;4.90;;;1.63;;
11777;SDS011;5946;51.770;8.548;2023-08-06T13:36:58;2.80;;;1.73;;
11777;SDS011;5946;51.770;8.548;2023-08-06T13:39:24;1.95;;;1.80;;
11777;SDS011;5946;51.770;8.548;2023-08-06T13:41:50;2.75;;;2.03;;
11777;SDS011;5946;51.770;8.548;2023-08-06T13:44:16;2.33;;;2.13;;
11777;SDS011;5946;51.770;8.548;2023-08-06T13:46:42;3.55;;;1.85;;
11777;SDS011;5946;51.770;8.548;2023-08-06T13:49:08;2.45;;;1.90;;
11777;SDS011;5946;51.770;8.548;2023-08-06T13:51:34;1.98;;;1.70;;
11777;SDS011;5946;51.770;8.548;2023-08-06T13:54:00;3.58;;;1.70;;
11777;SDS011;5946;51.770;8.548;2023-08-06T13:56:26;2.60;;;2.00;;
11777;SDS011;5946;51.770;8.548;2023-08-06T13:58:54;2.22;;;2.03;;
11777;SDS011;5946;51.770;8.548;2023-08-06T14:01:20;2.00;;;1.80;;
11777;SDS011;5946;51.770;8.548;2023-08-06T14:03:46;1.83;;;1.70;;
11777;SDS011;5946;51.770;8.548;2023-08-06T14:06:12;2.27;;;1.67;;
11777;SDS011;5946;51.770;8.548;2023-08-06T14:08:38;4.57;;;1.77;;
11777;SDS011;5946;51.770;8.548;2023-08-06T14:11:05;1.60;;;1.50;;
11777;SDS011;5946;51.770;8.548;2023-08-06T14:13:31;2.87;;;1.63;;
11777;SDS011;5946;51.770;8.548;2023-08-06T14:15:57;3.63;;;1.60;;
11777;SDS011;5946;51.770;8.548;2023-08-06T14:18:23;1.90;;;1.80;;
11777;SDS011;5946;51.770;8.548;2023-08-06T14:20:49;2.17;;;1.80;;
11777;SDS011;5946;51.770;8.548;2023-08-06T14:23:15;3.77;;;1.70;;
11777;SDS011;5946;51.770;8.548;2023-08-06T14:25:41;2.47;;;1.67;;
11777;SDS011;5946;51.770;8.548;2023-08-06T14:28:07;2.10;;;1.67;;
11777;SDS011;5946;51.770;8.548;2023-08-06T14:30:34;2.13;;;1.70;;
11777;SDS011;5946;51.770;8.548;2023-08-06T14:33:00;1.70;;;1.60;;
11777;SDS011;5946;51.770;8.548;2023-08-06T14:35:26;1.70;;;1.60;;
11777;SDS011;5946;51.770;8.548;2023-08-06T14:37:52;2.00;;;1.60;;
11777;SDS011;5946;51.770;8.548;2023-08-06T14:40:18;1.97;;;1.47;;
11777;SDS011;5946;51.770;8.548;2023-08-06T14:42:44;1.50;;;1.40;;
11777;SDS011;5946;51.770;8.548;2023-08-06T14:45:10;1.63;;;1.53;;
11777;SDS011;5946;51.770;8.548;2023-08-06T14:47:36;3.17;;;1.43;;
11777;SDS011;5946;51.770;8.548;2023-08-06T14:50:02;2.40;;;1.40;;
11777;SDS011;5946;51.770;8.548;2023-08-06T14:52:29;1.30;;;1.20;;
11777;SDS011;5946;51.770;8.548;2023-08-06T14:54:55;1.57;;;1.47;;
11777;SDS011;5946;51.770;8.548;2023-08-06T14:57:21;2.97;;;1.30;;
11777;SDS011;5946;51.770;8.548;2023-08-06T14:59:52;1.53;;;1.40;;
11777;SDS011;5946;51.770;8.548;2023-08-06T15:02:18;4.13;;;1.60;;
11777;SDS011;5946;51.770;8.548;2023-08-06T15:04:44;1.80;;;1.67;;